sensor_id;sensor_type;location;lat;lon;timestamp;P1;durP1;ratioP1;P2;durP2;ratioP2
46835;SDS011;32573;51.290;6.926;2023-09-07T00:02:15;3.30;;;1.60;;
46835;SDS011;32573;51.290;6.926;2023-09-07T00:04:51;3.22;;;1.45;;
46835;SDS011;32573;51.290;6.926;2023-09-07T00:07:20;3.88;;;1.45;;
46835;SDS011;32573;51.290;6.926;2023-09-07T00:09:49;3.17;;;1.42;;
46835;SDS011;32573;51.290;6.926;2023-09-07T00:12:18;3.30;;;1.70;;
46835;SDS011;32573;51.290;6.926;2023-09-07T00:14:46;3.00;;;1.50;;
46835;SDS011;32573;51.290;6.926;2023-09-07T00:17:16;3.50;;;1.60;;
46835;SDS011;32573;51.290;6.926;2023-09-07T00:19:45;4.45;;;1.75;;
46835;SDS011;32573;51.290;6.926;2023-09-07T00:22:16;3.63;;;1.60;;
46835;SDS011;32573;51.290;6.926;2023-09-07T00:24:45;4.55;;;1.73;;
46835;SDS011;32573;51.290;6.926;2023-09-07T00:27:14;2.92;;;1.33;;
46835;SDS011;32573;51.290;6.926;2023-09-07T00:29:42;3.38;;;1.67;;
46835;SDS011;32573;51.290;6.926;2023-09-07T00:32:11;3.38;;;1.55;;
46835;SDS011;32573;51.290;6.926;2023-09-07T00:34:41;3.47;;;1.73;;
46835;SDS011;32573;51.290;6.926;2023-09-07T00:37:09;3.13;;;1.30;;
46835;SDS011;32573;51.290;6.926;2023-09-07T00:39:38;2.90;;;1.35;;
46835;SDS011;32573;51.290;6.926;2023-09-07T00:42:07;4.07;;;1.60;;
46835;SDS011;32573;51.290;6.926;2023-09-07T00:44:36;3.50;;;1.60;;
46835;SDS011;32573;51.290;6.926;2023-09-07T00:47:04;3.70;;;1.60;;
46835;SDS011;32573;51.290;6.926;2023-09-07T00:49:33;4.65;;;1.70;;
46835;SDS011;32573;51.290;6.926;2023-09-07T00:52:04;3.65;;;1.67;;
46835;SDS011;32573;51.290;6.926;2023-09-07T00:54:33;3.38;;;1.48;;
46835;SDS011;32573;51.290;6.926;2023-09-07T00:57:04;4.28;;;1.67;;
46835;SDS011;32573;51.290;6.926;2023-09-07T00:59:33;3.35;;;1.50;;
46835;SDS011;32573;51.290;6.926;2023-09-07T01:02:02;3.40;;;1.60;;
46835;SDS011;32573;51.290;6.926;2023-09-07T01:04:33;3.15;;;1.40;;
46835;SDS011;32573;51.290;6.926;2023-09-07T01:07:02;3.17;;;1.55;;
46835;SDS011;32573;51.290;6.926;2023-09-07T01:09:37;4.03;;;1.60;;
46835;SDS011;32573;51.290;6.926;2023-09-07T01:12:13;3.15;;;1.50;;
46835;SDS011;32573;51.290;6.926;2023-09-07T01:14:43;4.03;;;1.40;;
46835;SDS011;32573;51.290;6.926;2023-09-07T01:17:13;3.50;;;1.60;;
46835;SDS011;32573;51.290;6.926;2023-09-07T01:19:42;3.30;;;1.70;;
46835;SDS011;32573;51.290;6.926;2023-09-07T01:22:14;3.17;;;1.50;;
46835;SDS011;32573;51.290;6.926;2023-09-07T01:24:43;3.53;;;1.70;;
46835;SDS011;32573;51.290;6.926;2023-09-07T01:27:13;3.67;;;1.45;;
46835;SDS011;32573;51.290;6.926;2023-09-07T01:29:42;3.17;;;1.40;;
46835;SDS011;32573;51.290;6.926;2023-09-07T01:32:11;4.13;;;1.60;;
46835;SDS011;32573;51.290;6.926;2023-09-07T01:34:41;3.50;;;1.50;;
46835;SDS011;32573;51.290;6.926;2023-09-07T01:37:09;3.28;;;1.52;;
46835;SDS011;32573;51.290;6.926;2023-09-07T01:39:40;3.20;;;1.50;;
46835;SDS011;32573;51.290;6.926;2023-09-07T01:42:11;3.03;;;1.55;;
46835;SDS011;32573;51.290;6.926;2023-09-07T01:44:40;3.67;;;1.58;;
46835;SDS011;32573;51.290;6.926;2023-09-07T01:47:10;4.82;;;1.52;;
46835;SDS011;32573;51.290;6.926;2023-09-07T01:49:39;3.80;;;1.38;;
46835;SDS011;32573;51.290;6.926;2023-09-07T01:52:07;3.50;;;1.80;;
46835;SDS011;32573;51.290;6.926;2023-09-07T01:54:36;3.15;;;1.50;;
46835;SDS011;32573;51.290;6.926;2023-09-07T01:57:06;4.40;;;1.50;;
46835;SDS011;32573;51.290;6.926;2023-09-07T01:59:35;3.10;;;1.52;;
46835;SDS011;32573;51.290;6.926;2023-09-07T02:02:04;3.10;;;1.40;;
46835;SDS011;32573;51.290;6.926;2023-09-07T02:04:33;4.18;;;1.83;;
46835;SDS011;32573;51.290;6.926;2023-09-07T02:07:01;3.47;;;1.50;;
46835;SDS011;32573;51.290;6.926;2023-09-07T02:09:31;4.35;;;1.58;;
46835;SDS011;32573;51.290;6.926;2023-09-07T02:11:59;3.15;;;1.52;;
46835;SDS011;32573;51.290;6.926;2023-09-07T02:14:31;4.28;;;1.55;;
46835;SDS011;32573;51.290;6.926;2023-09-07T02:17:00;3.40;;;1.63;;
46835;SDS011;32573;51.290;6.926;2023-09-07T02:19:29;3.28;;;1.45;;
46835;SDS011;32573;51.290;6.926;2023-09-07T02:21:57;3.53;;;1.67;;
46835;SDS011;32573;51.290;6.926;2023-09-07T02:24:26;3.28;;;1.55;;
46835;SDS011;32573;51.290;6.926;2023-09-07T02:26:55;3.13;;;1.35;;
46835;SDS011;32573;51.290;6.926;2023-09-07T02:29:23;3.38;;;1.60;;
46835;SDS011;32573;51.290;6.926;2023-09-07T02:31:53;3.60;;;1.77;;
46835;SDS011;32573;51.290;6.926;2023-09-07T02:34:23;3.40;;;1.60;;
46835;SDS011;32573;51.290;6.926;2023-09-07T02:36:52;3.28;;;1.50;;
46835;SDS011;32573;51.290;6.926;2023-09-07T02:39:20;3.33;;;1.50;;
46835;SDS011;32573;51.290;6.926;2023-09-07T02:41:53;3.20;;;1.70;;
46835;SDS011;32573;51.290;6.926;2023-09-07T02:44:21;3.15;;;1.50;;
46835;SDS011;32573;51.290;6.926;2023-09-07T02:46:50;3.17;;;1.50;;
46835;SDS011;32573;51.290;6.926;2023-09-07T02:49:20;3.30;;;1.42;;
46835;SDS011;32573;51.290;6.926;2023-09-07T02:51:49;3.42;;;1.50;;
46835;SDS011;32573;51.290;6.926;2023-09-07T02:54:18;3.20;;;1.63;;
46835;SDS011;32573;51.290;6.926;2023-09-07T02:56:46;2.90;;;1.40;;
46835;SDS011;32573;51.290;6.926;2023-09-07T02:59:15;3.53;;;1.60;;
46835;SDS011;32573;51.290;6.926;2023-09-07T03:01:44;3.17;;;1.40;;
46835;SDS011;32573;51.290;6.926;2023-09-07T03:04:13;3.63;;;1.63;;
46835;SDS011;32573;51.290;6.926;2023-09-07T03:06:43;3.30;;;1.50;;
46835;SDS011;32573;51.290;6.926;2023-09-07T03:09:12;2.92;;;1.33;;
46835;SDS011;32573;51.290;6.926;2023-09-07T03:11:41;4.03;;;1.58;;
46835;SDS011;32573;51.290;6.926;2023-09-07T03:14:10;3.10;;;1.40;;
46835;SDS011;32573;51.290;6.926;2023-09-07T03:16:39;4.18;;;1.60;;
46835;SDS011;32573;51.290;6.926;2023-09-07T03:19:09;3.13;;;1.40;;
46835;SDS011;32573;51.290;6.926;2023-09-07T03:21:37;3.20;;;1.40;;
46835;SDS011;32573;51.290;6.926;2023-09-07T03:24:08;4.13;;;1.70;;
46835;SDS011;32573;51.290;6.926;2023-09-07T03:26:36;2.95;;;1.48;;
46835;SDS011;32573;51.290;6.926;2023-09-07T03:29:08;3.53;;;1.70;;
46835;SDS011;32573;51.290;6.926;2023-09-07T03:31:37;3.28;;;1.50;;
46835;SDS011;32573;51.290;6.926;2023-09-07T03:34:06;3.40;;;1.52;;
46835;SDS011;32573;51.290;6.926;2023-09-07T03:36:34;3.20;;;1.48;;
46835;SDS011;32573;51.290;6.926;2023-09-07T03:39:03;4.13;;;1.60;;
46835;SDS011;32573;51.290;6.926;2023-09-07T03:41:36;3.80;;;1.77;;
46835;SDS011;32573;51.290;6.926;2023-09-07T03:44:05;3.40;;;1.50;;
46835;SDS011;32573;51.290;6.926;2023-09-07T03:46:34;3.25;;;1.48;;
46835;SDS011;32573;51.290;6.926;2023-09-07T03:49:03;3.50;;;1.60;;
46835;SDS011;32573;51.290;6.926;2023-09-07T03:51:32;3.50;;;1.58;;
46835;SDS011;32573;51.290;6.926;2023-09-07T03:54:01;3.28;;;1.40;;
46835;SDS011;32573;51.290;6.926;2023-09-07T03:56:29;3.33;;;1.40;;
46835;SDS011;32573;51.290;6.926;2023-09-07T03:58:59;3.97;;;1.80;;
46835;SDS011;32573;51.290;6.926;2023-09-07T04:01:28;4.13;;;1.70;;
46835;SDS011;32573;51.290;6.926;2023-09-07T04:03:57;3.17;;;1.60;;
46835;SDS011;32573;51.290;6.926;2023-09-07T04:06:26;3.00;;;1.48;;
46835;SDS011;32573;51.290;6.926;2023-09-07T04:08:55;4.00;;;1.80;;
46835;SDS011;32573;51.290;6.926;2023-09-07T04:11:24;3.13;;;1.50;;
46835;SDS011;32573;51.290;6.926;2023-09-07T04:13:53;4.00;;;1.60;;
46835;SDS011;32573;51.290;6.926;2023-09-07T04:16:23;2.72;;;1.45;;
46835;SDS011;32573;51.290;6.926;2023-09-07T04:18:52;3.63;;;1.60;;
46835;SDS011;32573;51.290;6.926;2023-09-07T04:21:20;4.03;;;1.80;;
46835;SDS011;32573;51.290;6.926;2023-09-07T04:23:49;3.35;;;1.60;;
46835;SDS011;32573;51.290;6.926;2023-09-07T04:26:18;3.83;;;1.60;;
46835;SDS011;32573;51.290;6.926;2023-09-07T04:28:47;3.72;;;1.70;;
46835;SDS011;32573;51.290;6.926;2023-09-07T04:31:15;3.35;;;1.52;;
46835;SDS011;32573;51.290;6.926;2023-09-07T04:33:46;4.20;;;1.42;;
46835;SDS011;32573;51.290;6.926;2023-09-07T04:36:14;3.25;;;1.60;;
46835;SDS011;32573;51.290;6.926;2023-09-07T04:38:46;3.13;;;1.50;;
46835;SDS011;32573;51.290;6.926;2023-09-07T04:41:15;3.13;;;1.50;;
46835;SDS011;32573;51.290;6.926;2023-09-07T04:43:44;4.47;;;1.63;;
46835;SDS011;32573;51.290;6.926;2023-09-07T04:46:13;3.20;;;1.50;;
46835;SDS011;32573;51.290;6.926;2023-09-07T04:48:42;3.03;;;1.40;;
46835;SDS011;32573;51.290;6.926;2023-09-07T04:51:12;3.45;;;1.50;;
46835;SDS011;32573;51.290;6.926;2023-09-07T04:53:40;3.60;;;1.60;;
46835;SDS011;32573;51.290;6.926;2023-09-07T04:56:09;4.53;;;1.70;;
46835;SDS011;32573;51.290;6.926;2023-09-07T04:58:39;4.32;;;1.60;;
46835;SDS011;32573;51.290;6.926;2023-09-07T05:01:08;3.42;;;1.50;;
46835;SDS011;32573;51.290;6.926;2023-09-07T05:03:38;3.63;;;1.40;;
46835;SDS011;32573;51.290;6.926;2023-09-07T05:06:09;3.38;;;1.70;;
46835;SDS011;32573;51.290;6.926;2023-09-07T05:08:41;3.42;;;1.80;;
46835;SDS011;32573;51.290;6.926;2023-09-07T05:11:11;3.30;;;1.50;;
46835;SDS011;32573;51.290;6.926;2023-09-07T05:13:39;3.20;;;1.40;;
46835;SDS011;32573;51.290;6.926;2023-09-07T05:16:08;3.15;;;1.50;;
46835;SDS011;32573;51.290;6.926;2023-09-07T05:18:37;3.55;;;1.70;;
46835;SDS011;32573;51.290;6.926;2023-09-07T05:21:10;3.15;;;1.63;;
46835;SDS011;32573;51.290;6.926;2023-09-07T05:23:42;3.67;;;1.50;;
46835;SDS011;32573;51.290;6.926;2023-09-07T05:26:11;3.53;;;1.55;;
46835;SDS011;32573;51.290;6.926;2023-09-07T05:28:39;3.28;;;1.60;;
46835;SDS011;32573;51.290;6.926;2023-09-07T05:31:10;3.42;;;1.50;;
46835;SDS011;32573;51.290;6.926;2023-09-07T05:33:39;3.25;;;1.40;;
46835;SDS011;32573;51.290;6.926;2023-09-07T05:36:07;4.20;;;1.67;;
46835;SDS011;32573;51.290;6.926;2023-09-07T05:38:36;3.55;;;1.55;;
46835;SDS011;32573;51.290;6.926;2023-09-07T05:41:08;3.05;;;1.40;;
46835;SDS011;32573;51.290;6.926;2023-09-07T05:43:36;3.10;;;1.48;;
46835;SDS011;32573;51.290;6.926;2023-09-07T05:46:05;3.75;;;1.42;;
46835;SDS011;32573;51.290;6.926;2023-09-07T05:48:34;3.60;;;1.60;;
46835;SDS011;32573;51.290;6.926;2023-09-07T05:51:03;3.33;;;1.60;;
46835;SDS011;32573;51.290;6.926;2023-09-07T05:53:31;3.70;;;1.67;;
46835;SDS011;32573;51.290;6.926;2023-09-07T05:56:00;3.35;;;1.52;;
46835;SDS011;32573;51.290;6.926;2023-09-07T05:58:30;3.10;;;1.52;;
46835;SDS011;32573;51.290;6.926;2023-09-07T06:01:00;3.35;;;1.55;;
46835;SDS011;32573;51.290;6.926;2023-09-07T06:03:29;3.63;;;2.00;;
46835;SDS011;32573;51.290;6.926;2023-09-07T06:05:59;3.50;;;1.70;;
46835;SDS011;32573;51.290;6.926;2023-09-07T06:08:28;4.13;;;1.73;;
46835;SDS011;32573;51.290;6.926;2023-09-07T06:10:57;3.70;;;1.70;;
46835;SDS011;32573;51.290;6.926;2023-09-07T06:13:27;3.80;;;1.83;;
46835;SDS011;32573;51.290;6.926;2023-09-07T06:15:58;3.75;;;1.80;;
46835;SDS011;32573;51.290;6.926;2023-09-07T06:18:28;3.60;;;1.70;;
46835;SDS011;32573;51.290;6.926;2023-09-07T06:20:57;3.10;;;1.63;;
46835;SDS011;32573;51.290;6.926;2023-09-07T06:23:26;3.88;;;1.90;;
46835;SDS011;32573;51.290;6.926;2023-09-07T06:25:54;3.60;;;1.67;;
46835;SDS011;32573;51.290;6.926;2023-09-07T06:28:23;3.63;;;1.58;;
46835;SDS011;32573;51.290;6.926;2023-09-07T06:30:52;3.90;;;1.92;;
46835;SDS011;32573;51.290;6.926;2023-09-07T06:33:23;4.30;;;1.90;;
46835;SDS011;32573;51.290;6.926;2023-09-07T06:35:52;3.38;;;1.60;;
46835;SDS011;32573;51.290;6.926;2023-09-07T06:38:21;4.70;;;1.75;;
46835;SDS011;32573;51.290;6.926;2023-09-07T06:40:49;3.70;;;1.75;;
46835;SDS011;32573;51.290;6.926;2023-09-07T06:43:19;3.38;;;1.70;;
46835;SDS011;32573;51.290;6.926;2023-09-07T06:45:51;4.30;;;1.90;;
46835;SDS011;32573;51.290;6.926;2023-09-07T06:48:19;3.78;;;1.80;;
46835;SDS011;32573;51.290;6.926;2023-09-07T06:50:49;4.03;;;1.88;;
46835;SDS011;32573;51.290;6.926;2023-09-07T06:53:18;3.38;;;1.52;;
46835;SDS011;32573;51.290;6.926;2023-09-07T06:55:47;4.03;;;1.90;;
46835;SDS011;32573;51.290;6.926;2023-09-07T06:58:15;3.33;;;1.55;;
46835;SDS011;32573;51.290;6.926;2023-09-07T07:00:45;4.43;;;1.85;;
46835;SDS011;32573;51.290;6.926;2023-09-07T07:03:15;4.07;;;1.77;;
46835;SDS011;32573;51.290;6.926;2023-09-07T07:05:43;4.13;;;1.77;;
46835;SDS011;32573;51.290;6.926;2023-09-07T07:08:14;3.80;;;1.70;;
46835;SDS011;32573;51.290;6.926;2023-09-07T07:10:42;4.22;;;1.77;;
46835;SDS011;32573;51.290;6.926;2023-09-07T07:13:11;4.40;;;2.05;;
46835;SDS011;32573;51.290;6.926;2023-09-07T07:15:40;3.65;;;1.55;;
46835;SDS011;32573;51.290;6.926;2023-09-07T07:18:09;5.40;;;1.83;;
46835;SDS011;32573;51.290;6.926;2023-09-07T07:20:39;4.30;;;1.80;;
46835;SDS011;32573;51.290;6.926;2023-09-07T07:23:08;4.03;;;1.90;;
46835;SDS011;32573;51.290;6.926;2023-09-07T07:25:39;3.28;;;1.55;;
46835;SDS011;32573;51.290;6.926;2023-09-07T07:28:08;3.53;;;1.92;;
46835;SDS011;32573;51.290;6.926;2023-09-07T07:30:38;4.35;;;1.77;;
46835;SDS011;32573;51.290;6.926;2023-09-07T07:33:08;4.60;;;2.03;;
46835;SDS011;32573;51.290;6.926;2023-09-07T07:35:39;3.22;;;1.50;;
46835;SDS011;32573;51.290;6.926;2023-09-07T07:38:08;3.55;;;1.83;;
46835;SDS011;32573;51.290;6.926;2023-09-07T07:40:39;4.32;;;2.10;;
46835;SDS011;32573;51.290;6.926;2023-09-07T07:43:09;4.45;;;1.80;;
46835;SDS011;32573;51.290;6.926;2023-09-07T07:45:40;3.85;;;1.73;;
46835;SDS011;32573;51.290;6.926;2023-09-07T07:48:09;3.95;;;1.70;;
46835;SDS011;32573;51.290;6.926;2023-09-07T07:50:40;4.65;;;2.00;;
46835;SDS011;32573;51.290;6.926;2023-09-07T07:53:11;4.13;;;1.90;;
46835;SDS011;32573;51.290;6.926;2023-09-07T07:55:42;4.28;;;1.95;;
46835;SDS011;32573;51.290;6.926;2023-09-07T07:58:14;4.45;;;1.98;;
46835;SDS011;32573;51.290;6.926;2023-09-07T08:00:43;3.88;;;2.13;;
46835;SDS011;32573;51.290;6.926;2023-09-07T08:03:18;3.53;;;1.77;;
46835;SDS011;32573;51.290;6.926;2023-09-07T08:05:50;4.85;;;1.88;;
46835;SDS011;32573;51.290;6.926;2023-09-07T08:08:19;3.80;;;1.90;;
46835;SDS011;32573;51.290;6.926;2023-09-07T08:10:49;4.45;;;2.20;;
46835;SDS011;32573;51.290;6.926;2023-09-07T08:13:18;4.10;;;2.05;;
46835;SDS011;32573;51.290;6.926;2023-09-07T08:15:47;3.80;;;2.00;;
46835;SDS011;32573;51.290;6.926;2023-09-07T08:18:16;5.32;;;2.22;;
46835;SDS011;32573;51.290;6.926;2023-09-07T08:20:45;4.05;;;2.03;;
46835;SDS011;32573;51.290;6.926;2023-09-07T08:23:14;4.07;;;1.83;;
46835;SDS011;32573;51.290;6.926;2023-09-07T08:25:43;5.05;;;1.88;;
46835;SDS011;32573;51.290;6.926;2023-09-07T08:28:15;4.00;;;1.95;;
46835;SDS011;32573;51.290;6.926;2023-09-07T08:30:45;4.88;;;1.98;;
46835;SDS011;32573;51.290;6.926;2023-09-07T08:33:14;4.63;;;1.95;;
46835;SDS011;32573;51.290;6.926;2023-09-07T08:35:42;3.70;;;2.00;;
46835;SDS011;32573;51.290;6.926;2023-09-07T08:38:12;3.80;;;1.90;;
46835;SDS011;32573;51.290;6.926;2023-09-07T08:40:40;4.30;;;2.13;;
46835;SDS011;32573;51.290;6.926;2023-09-07T08:43:09;3.72;;;2.05;;
46835;SDS011;32573;51.290;6.926;2023-09-07T08:45:43;5.20;;;1.73;;
46835;SDS011;32573;51.290;6.926;2023-09-07T08:48:16;4.38;;;2.10;;
46835;SDS011;32573;51.290;6.926;2023-09-07T08:50:47;4.20;;;2.00;;
46835;SDS011;32573;51.290;6.926;2023-09-07T08:53:19;4.13;;;2.05;;
46835;SDS011;32573;51.290;6.926;2023-09-07T08:55:48;4.75;;;2.20;;
46835;SDS011;32573;51.290;6.926;2023-09-07T08:58:16;4.80;;;2.10;;
46835;SDS011;32573;51.290;6.926;2023-09-07T09:00:46;3.83;;;2.00;;
46835;SDS011;32573;51.290;6.926;2023-09-07T09:03:16;4.93;;;2.28;;
46835;SDS011;32573;51.290;6.926;2023-09-07T09:05:45;5.30;;;2.25;;
46835;SDS011;32573;51.290;6.926;2023-09-07T09:08:15;4.60;;;2.30;;
46835;SDS011;32573;51.290;6.926;2023-09-07T09:10:47;4.55;;;2.17;;
46835;SDS011;32573;51.290;6.926;2023-09-07T09:13:15;3.72;;;2.08;;
46835;SDS011;32573;51.290;6.926;2023-09-07T09:15:44;3.95;;;2.20;;
46835;SDS011;32573;51.290;6.926;2023-09-07T09:18:17;4.55;;;2.40;;
46835;SDS011;32573;51.290;6.926;2023-09-07T09:20:46;4.35;;;2.30;;
46835;SDS011;32573;51.290;6.926;2023-09-07T09:23:14;4.32;;;2.17;;
46835;SDS011;32573;51.290;6.926;2023-09-07T09:25:43;3.88;;;2.28;;
46835;SDS011;32573;51.290;6.926;2023-09-07T09:28:12;4.18;;;2.40;;
46835;SDS011;32573;51.290;6.926;2023-09-07T09:30:41;4.68;;;2.20;;
46835;SDS011;32573;51.290;6.926;2023-09-07T09:33:12;4.70;;;2.00;;
46835;SDS011;32573;51.290;6.926;2023-09-07T09:35:42;4.78;;;2.60;;
46835;SDS011;32573;51.290;6.926;2023-09-07T09:38:12;4.38;;;2.20;;
46835;SDS011;32573;51.290;6.926;2023-09-07T09:40:41;4.25;;;2.20;;
46835;SDS011;32573;51.290;6.926;2023-09-07T09:43:10;4.07;;;2.22;;
46835;SDS011;32573;51.290;6.926;2023-09-07T09:45:40;3.92;;;2.10;;
46835;SDS011;32573;51.290;6.926;2023-09-07T09:48:09;4.38;;;2.25;;
46835;SDS011;32573;51.290;6.926;2023-09-07T09:50:40;4.15;;;2.20;;
46835;SDS011;32573;51.290;6.926;2023-09-07T09:53:10;4.50;;;2.10;;
46835;SDS011;32573;51.290;6.926;2023-09-07T09:55:43;4.65;;;2.20;;
46835;SDS011;32573;51.290;6.926;2023-09-07T09:58:11;5.45;;;2.40;;
46835;SDS011;32573;51.290;6.926;2023-09-07T10:00:41;4.20;;;2.20;;
46835;SDS011;32573;51.290;6.926;2023-09-07T10:03:12;4.38;;;2.30;;
46835;SDS011;32573;51.290;6.926;2023-09-07T10:05:46;4.00;;;2.00;;
46835;SDS011;32573;51.290;6.926;2023-09-07T10:08:14;4.15;;;2.17;;
46835;SDS011;32573;51.290;6.926;2023-09-07T10:10:52;4.68;;;2.22;;
46835;SDS011;32573;51.290;6.926;2023-09-07T10:13:28;4.55;;;2.20;;
46835;SDS011;32573;51.290;6.926;2023-09-07T10:16:01;4.10;;;2.20;;
46835;SDS011;32573;51.290;6.926;2023-09-07T10:18:35;4.03;;;2.27;;
46835;SDS011;32573;51.290;6.926;2023-09-07T10:21:06;5.28;;;2.30;;
46835;SDS011;32573;51.290;6.926;2023-09-07T10:23:35;5.32;;;2.20;;
46835;SDS011;32573;51.290;6.926;2023-09-07T10:26:05;4.22;;;2.30;;
46835;SDS011;32573;51.290;6.926;2023-09-07T10:28:39;4.13;;;2.15;;
46835;SDS011;32573;51.290;6.926;2023-09-07T10:31:12;10.38;;;2.30;;
46835;SDS011;32573;51.290;6.926;2023-09-07T10:33:42;4.20;;;2.10;;
46835;SDS011;32573;51.290;6.926;2023-09-07T10:36:21;3.50;;;1.83;;
46835;SDS011;32573;51.290;6.926;2023-09-07T10:38:51;4.40;;;2.10;;
46835;SDS011;32573;51.290;6.926;2023-09-07T10:41:21;3.88;;;2.28;;
46835;SDS011;32573;51.290;6.926;2023-09-07T10:43:50;4.53;;;2.38;;
46835;SDS011;32573;51.290;6.926;2023-09-07T10:46:20;6.85;;;2.47;;
46835;SDS011;32573;51.290;6.926;2023-09-07T10:48:51;4.13;;;2.00;;
46835;SDS011;32573;51.290;6.926;2023-09-07T10:51:25;4.45;;;1.80;;
46835;SDS011;32573;51.290;6.926;2023-09-07T10:53:53;5.45;;;2.28;;
46835;SDS011;32573;51.290;6.926;2023-09-07T10:56:24;3.63;;;1.85;;
46835;SDS011;32573;51.290;6.926;2023-09-07T10:58:53;4.75;;;2.25;;
46835;SDS011;32573;51.290;6.926;2023-09-07T11:01:22;3.97;;;2.05;;
46835;SDS011;32573;51.290;6.926;2023-09-07T11:03:51;4.45;;;2.10;;
46835;SDS011;32573;51.290;6.926;2023-09-07T11:06:20;3.92;;;2.10;;
46835;SDS011;32573;51.290;6.926;2023-09-07T11:08:54;4.07;;;2.05;;
46835;SDS011;32573;51.290;6.926;2023-09-07T11:11:23;3.60;;;1.80;;
46835;SDS011;32573;51.290;6.926;2023-09-07T11:13:51;3.63;;;1.90;;
46835;SDS011;32573;51.290;6.926;2023-09-07T11:16:20;4.50;;;2.17;;
46835;SDS011;32573;51.290;6.926;2023-09-07T11:18:53;4.43;;;2.20;;
46835;SDS011;32573;51.290;6.926;2023-09-07T11:21:22;4.07;;;1.98;;
46835;SDS011;32573;51.290;6.926;2023-09-07T11:23:52;3.75;;;2.00;;
46835;SDS011;32573;51.290;6.926;2023-09-07T11:26:22;3.70;;;1.88;;
46835;SDS011;32573;51.290;6.926;2023-09-07T11:28:51;4.32;;;2.20;;
46835;SDS011;32573;51.290;6.926;2023-09-07T11:31:19;3.72;;;1.83;;
46835;SDS011;32573;51.290;6.926;2023-09-07T11:33:49;5.25;;;2.20;;
46835;SDS011;32573;51.290;6.926;2023-09-07T11:36:17;4.55;;;2.47;;
46835;SDS011;32573;51.290;6.926;2023-09-07T11:38:50;3.78;;;2.20;;
46835;SDS011;32573;51.290;6.926;2023-09-07T11:41:18;4.28;;;2.17;;
46835;SDS011;32573;51.290;6.926;2023-09-07T11:43:48;4.00;;;2.00;;
46835;SDS011;32573;51.290;6.926;2023-09-07T11:46:17;4.22;;;1.73;;
46835;SDS011;32573;51.290;6.926;2023-09-07T11:48:45;3.63;;;1.95;;
46835;SDS011;32573;51.290;6.926;2023-09-07T11:51:14;4.13;;;1.90;;
46835;SDS011;32573;51.290;6.926;2023-09-07T11:53:43;3.30;;;1.63;;
46835;SDS011;32573;51.290;6.926;2023-09-07T11:56:11;3.60;;;2.00;;
46835;SDS011;32573;51.290;6.926;2023-09-07T11:58:40;3.47;;;1.80;;
46835;SDS011;32573;51.290;6.926;2023-09-07T12:01:12;4.70;;;2.15;;
46835;SDS011;32573;51.290;6.926;2023-09-07T12:03:43;4.85;;;2.28;;
46835;SDS011;32573;51.290;6.926;2023-09-07T12:06:13;3.58;;;1.80;;
46835;SDS011;32573;51.290;6.926;2023-09-07T12:08:42;3.53;;;1.85;;
46835;SDS011;32573;51.290;6.926;2023-09-07T12:11:26;3.58;;;1.90;;
46835;SDS011;32573;51.290;6.926;2023-09-07T12:13:55;3.60;;;1.90;;
46835;SDS011;32573;51.290;6.926;2023-09-07T12:16:25;3.65;;;1.98;;
46835;SDS011;32573;51.290;6.926;2023-09-07T12:18:54;4.60;;;2.10;;
46835;SDS011;32573;51.290;6.926;2023-09-07T12:21:23;3.85;;;2.05;;
46835;SDS011;32573;51.290;6.926;2023-09-07T12:23:51;3.30;;;1.85;;
46835;SDS011;32573;51.290;6.926;2023-09-07T12:26:20;4.15;;;2.20;;
46835;SDS011;32573;51.290;6.926;2023-09-07T12:28:48;3.65;;;1.98;;
46835;SDS011;32573;51.290;6.926;2023-09-07T12:31:17;4.30;;;2.20;;
46835;SDS011;32573;51.290;6.926;2023-09-07T12:33:47;4.10;;;2.20;;
46835;SDS011;32573;51.290;6.926;2023-09-07T12:36:15;3.85;;;1.92;;
46835;SDS011;32573;51.290;6.926;2023-09-07T12:38:44;4.55;;;2.28;;
46835;SDS011;32573;51.290;6.926;2023-09-07T12:41:13;4.32;;;1.95;;
46835;SDS011;32573;51.290;6.926;2023-09-07T12:43:42;3.60;;;1.90;;
46835;SDS011;32573;51.290;6.926;2023-09-07T12:46:11;3.95;;;2.00;;
46835;SDS011;32573;51.290;6.926;2023-09-07T12:48:40;4.63;;;2.22;;
46835;SDS011;32573;51.290;6.926;2023-09-07T12:51:11;4.57;;;2.00;;
46835;SDS011;32573;51.290;6.926;2023-09-07T12:53:40;3.45;;;2.00;;
46835;SDS011;32573;51.290;6.926;2023-09-07T12:56:09;4.15;;;1.95;;
46835;SDS011;32573;51.290;6.926;2023-09-07T12:58:38;3.85;;;2.10;;
46835;SDS011;32573;51.290;6.926;2023-09-07T13:01:06;4.07;;;2.15;;
46835;SDS011;32573;51.290;6.926;2023-09-07T13:03:37;3.88;;;2.00;;
46835;SDS011;32573;51.290;6.926;2023-09-07T13:06:06;4.35;;;2.08;;
46835;SDS011;32573;51.290;6.926;2023-09-07T13:08:36;3.92;;;2.10;;
46835;SDS011;32573;51.290;6.926;2023-09-07T13:11:05;4.10;;;2.10;;
46835;SDS011;32573;51.290;6.926;2023-09-07T13:13:33;4.10;;;1.75;;
46835;SDS011;32573;51.290;6.926;2023-09-07T13:16:02;4.78;;;2.30;;
46835;SDS011;32573;51.290;6.926;2023-09-07T13:18:31;4.00;;;2.00;;
46835;SDS011;32573;51.290;6.926;2023-09-07T13:20:59;4.25;;;2.10;;
46835;SDS011;32573;51.290;6.926;2023-09-07T13:23:28;3.58;;;1.92;;
46835;SDS011;32573;51.290;6.926;2023-09-07T13:26:00;3.70;;;1.90;;
46835;SDS011;32573;51.290;6.926;2023-09-07T13:28:29;3.70;;;1.92;;
46835;SDS011;32573;51.290;6.926;2023-09-07T13:30:59;4.75;;;2.08;;
46835;SDS011;32573;51.290;6.926;2023-09-07T13:33:28;3.55;;;1.85;;
46835;SDS011;32573;51.290;6.926;2023-09-07T13:35:57;4.32;;;1.85;;
46835;SDS011;32573;51.290;6.926;2023-09-07T13:38:26;3.80;;;2.00;;
46835;SDS011;32573;51.290;6.926;2023-09-07T13:40:55;4.13;;;1.92;;
46835;SDS011;32573;51.290;6.926;2023-09-07T13:43:24;3.88;;;1.73;;
46835;SDS011;32573;51.290;6.926;2023-09-07T13:45:53;4.75;;;2.00;;
46835;SDS011;32573;51.290;6.926;2023-09-07T13:48:21;3.60;;;1.90;;
46835;SDS011;32573;51.290;6.926;2023-09-07T13:50:50;4.00;;;2.08;;
46835;SDS011;32573;51.290;6.926;2023-09-07T13:53:18;3.90;;;2.10;;
46835;SDS011;32573;51.290;6.926;2023-09-07T13:55:47;3.60;;;2.10;;
46835;SDS011;32573;51.290;6.926;2023-09-07T13:58:16;3.28;;;1.73;;
46835;SDS011;32573;51.290;6.926;2023-09-07T14:00:47;4.18;;;2.05;;
46835;SDS011;32573;51.290;6.926;2023-09-07T14:03:18;4.20;;;2.20;;
46835;SDS011;32573;51.290;6.926;2023-09-07T14:05:46;3.75;;;2.00;;
46835;SDS011;32573;51.290;6.926;2023-09-07T14:08:15;3.55;;;1.80;;
46835;SDS011;32573;51.290;6.926;2023-09-07T14:10:44;3.67;;;1.85;;
46835;SDS011;32573;51.290;6.926;2023-09-07T14:13:12;4.38;;;2.10;;
46835;SDS011;32573;51.290;6.926;2023-09-07T14:15:41;3.72;;;1.98;;
46835;SDS011;32573;51.290;6.926;2023-09-07T14:18:10;3.70;;;2.00;;
46835;SDS011;32573;51.290;6.926;2023-09-07T14:20:39;4.10;;;2.00;;
46835;SDS011;32573;51.290;6.926;2023-09-07T14:23:08;3.50;;;2.10;;
46835;SDS011;32573;51.290;6.926;2023-09-07T14:25:36;3.80;;;1.63;;
46835;SDS011;32573;51.290;6.926;2023-09-07T14:28:09;3.97;;;1.98;;
46835;SDS011;32573;51.290;6.926;2023-09-07T14:30:37;4.72;;;2.30;;
46835;SDS011;32573;51.290;6.926;2023-09-07T14:33:06;3.83;;;2.10;;
46835;SDS011;32573;51.290;6.926;2023-09-07T14:35:36;4.30;;;2.10;;
46835;SDS011;32573;51.290;6.926;2023-09-07T14:38:04;4.03;;;1.98;;
46835;SDS011;32573;51.290;6.926;2023-09-07T14:40:33;4.25;;;1.75;;
46835;SDS011;32573;51.290;6.926;2023-09-07T14:43:01;4.28;;;1.80;;
46835;SDS011;32573;51.290;6.926;2023-09-07T14:45:30;4.25;;;1.80;;
46835;SDS011;32573;51.290;6.926;2023-09-07T14:47:58;3.72;;;2.03;;
46835;SDS011;32573;51.290;6.926;2023-09-07T14:50:27;3.80;;;1.80;;
46835;SDS011;32573;51.290;6.926;2023-09-07T14:52:58;5.05;;;2.00;;
46835;SDS011;32573;51.290;6.926;2023-09-07T14:55:26;3.50;;;1.70;;
46835;SDS011;32573;51.290;6.926;2023-09-07T14:57:55;3.88;;;1.90;;
46835;SDS011;32573;51.290;6.926;2023-09-07T15:00:24;3.40;;;1.70;;
46835;SDS011;32573;51.290;6.926;2023-09-07T15:02:54;3.30;;;1.60;;